createdAt,value
2023-01-02T00:02:42.892Z,100267.94
2023-01-02T00:05:45.298Z,100256.22
2023-01-02T00:08:46.802Z,100258.09
2023-01-02T00:11:49.505Z,100258.47
2023-01-02T00:14:51.875Z,100251.31
2023-01-02T00:17:53.354Z,100245.03
2023-01-02T00:20:54.810Z,100225.31
2023-01-02T00:23:56.351Z,100239.94
2023-01-02T00:26:57.812Z,100232.78
2023-01-02T00:29:59.294Z,100224.00
2023-01-02T00:33:00.733Z,100196.97
2023-01-02T00:36:11.397Z,100203.25
2023-01-02T00:39:14.094Z,100180.00
2023-01-02T00:42:15.648Z,100176.59
2023-01-02T00:45:17.247Z,100165.06
2023-01-02T00:48:18.781Z,100179.50
2023-01-02T00:51:20.325Z,100172.34
2023-01-02T00:54:21.820Z,100169.81
2023-01-02T00:57:23.263Z,100161.84
2023-01-02T01:00:24.813Z,100167.47
2023-01-02T01:03:26.344Z,100154.03
2023-01-02T01:06:27.899Z,100151.31
2023-01-02T01:09:29.449Z,100161.34
2023-01-02T01:12:31.148Z,100151.69
2023-01-02T01:15:33.883Z,100162.53
2023-01-02T01:18:36.194Z,100152.69
2023-01-02T01:21:37.714Z,100151.84
2023-01-02T01:24:39.223Z,100138.44
2023-01-02T01:27:40.718Z,100147.44
2023-01-02T01:30:42.180Z,100146.72
2023-01-02T01:33:44.555Z,100139.41
2023-01-02T01:36:46.023Z,100145.03
2023-01-02T01:39:47.505Z,100147.75
2023-01-02T01:42:50.346Z,100145.19
2023-01-02T01:45:52.029Z,100146.22
2023-01-02T01:48:57.536Z,100152.31
2023-01-02T01:52:06.243Z,100151.66
2023-01-02T01:55:39.333Z,100154.38
2023-01-02T01:58:44.482Z,100148.28
2023-01-02T02:01:49.273Z,100149.94
2023-01-02T02:04:51.885Z,100151.97
2023-01-02T02:08:23.641Z,100147.44
2023-01-02T02:11:25.569Z,100152.19
2023-01-02T02:14:27.020Z,100138.75
2023-01-02T02:17:58.465Z,100139.59
2023-01-02T02:21:02.845Z,100135.34
2023-01-02T02:24:13.388Z,100129.75
2023-01-02T02:27:20.845Z,100126.22
2023-01-02T02:30:34.751Z,100113.63
2023-01-02T02:33:41.716Z,100119.06
2023-01-02T02:36:51.488Z,100093.97
2023-01-02T02:40:25.419Z,100102.13
2023-01-02T02:43:55.505Z,100091.41
2023-01-02T02:47:07.728Z,100084.09
2023-01-02T02:50:16.953Z,100087.00
2023-01-02T02:53:22.903Z,100090.72
2023-01-02T02:56:27.910Z,100077.16
2023-01-02T02:59:30.145Z,100085.50
2023-01-02T03:02:31.779Z,100084.47
2023-01-02T03:05:35.274Z,100082.78
2023-01-02T03:08:58.078Z,100072.56
2023-01-02T03:12:18.425Z,100088.84
2023-01-02T03:15:24.569Z,100096.00
2023-01-02T03:18:54.109Z,100091.56
2023-01-02T03:22:19.748Z,100097.00
2023-01-02T03:25:22.088Z,100092.59
2023-01-02T03:28:26.764Z,100095.31
2023-01-02T03:31:32.103Z,100098.03
2023-01-02T03:34:36.736Z,100096.16
2023-01-02T03:37:44.849Z,100089.88
2023-01-02T03:40:50.802Z,100103.31
2023-01-02T03:43:57.216Z,100088.00
2023-01-02T03:47:24.009Z,100095.16
2023-01-02T03:50:31.710Z,100088.00
2023-01-02T03:53:36.498Z,100089.88
2023-01-02T03:56:58.011Z,100079.03
2023-01-02T04:00:14.895Z,100091.56
2023-01-02T04:03:22.232Z,100094.47
2023-01-02T04:06:33.906Z,100092.59
2023-01-02T04:09:38.277Z,100098.19
2023-01-02T04:12:43.939Z,100090.91
2023-01-02T04:15:48.299Z,100091.75
2023-01-02T04:18:55.142Z,100080.91
2023-01-02T04:22:01.041Z,100080.72
2023-01-02T04:25:15.300Z,100079.72
2023-01-02T04:28:24.216Z,100089.53
2023-01-02T04:31:35.942Z,100096.69
2023-01-02T04:34:40.428Z,100095.50
2023-01-02T04:37:43.736Z,100110.91
2023-01-02T04:40:45.573Z,100109.91
2023-01-02T04:43:47.055Z,100117.22
2023-01-02T04:46:48.594Z,100109.72
2023-01-02T04:49:50.124Z,100100.72
2023-01-02T04:52:51.664Z,100096.13
2023-01-02T04:55:57.323Z,100089.50
2023-01-02T04:58:58.802Z,100091.59
2023-01-02T05:02:00.539Z,100088.00
2023-01-02T05:05:02.515Z,100093.41
2023-01-02T05:08:04.353Z,100115.16
2023-01-02T05:11:12.029Z,100103.28
2023-01-02T05:14:13.543Z,100101.56
2023-01-02T05:17:15.073Z,100108.03
2023-01-02T05:20:16.834Z,100109.72
2023-01-02T05:23:56.737Z,100097.16
2023-01-02T05:26:58.277Z,100103.63
2023-01-02T05:29:59.762Z,100095.50
2023-01-02T05:33:01.301Z,100098.38
2023-01-02T05:36:05.841Z,100103.63
2023-01-02T05:39:14.428Z,100110.06
2023-01-02T05:42:15.978Z,100083.09
2023-01-02T05:45:17.492Z,100101.91
2023-01-02T05:48:18.998Z,100115.69
2023-01-02T05:51:20.568Z,100105.84
2023-01-02T05:54:22.136Z,100108.56
2023-01-02T05:57:23.606Z,100100.41
2023-01-02T06:00:25.139Z,100096.69
2023-01-02T06:03:27.921Z,100081.38
2023-01-02T06:06:32.912Z,100077.66
2023-01-02T06:09:34.476Z,100091.25
2023-01-02T06:12:36.005Z,100095.81
2023-01-02T06:15:37.520Z,100099.41
2023-01-02T06:18:40.341Z,100101.91
2023-01-02T06:21:41.878Z,100092.94
2023-01-02T06:24:43.400Z,100083.75
2023-01-02T06:27:44.913Z,100095.66
2023-01-02T06:30:46.545Z,100093.63
2023-01-02T06:33:48.320Z,100090.91
2023-01-02T06:36:49.824Z,100089.03
2023-01-02T06:39:51.285Z,100084.63
2023-01-02T06:42:57.086Z,100090.06
2023-01-02T06:46:04.439Z,100086.31
2023-01-02T06:49:06.072Z,100078.31
2023-01-02T06:52:07.537Z,100100.03
2023-01-02T06:55:09.311Z,100090.06
2023-01-02T06:58:16.035Z,100091.06
2023-01-02T07:01:22.921Z,100091.06
2023-01-02T07:04:24.558Z,100098.53
2023-01-02T07:07:26.142Z,100091.41
2023-01-02T07:10:27.692Z,100099.56
2023-01-02T07:13:29.139Z,100105.00
2023-01-02T07:16:30.738Z,100094.28
2023-01-02T07:19:32.245Z,100098.88
2023-01-02T07:22:33.700Z,100103.47
2023-01-02T07:25:38.196Z,100106.19
2023-01-02T07:28:45.267Z,100109.94
2023-01-02T07:31:46.863Z,100111.78
2023-01-02T07:34:48.362Z,100102.63
2023-01-02T07:37:49.914Z,100109.06
2023-01-02T07:40:51.410Z,100112.66
2023-01-02T07:43:55.896Z,100125.19
2023-01-02T07:46:57.425Z,100117.22
2023-01-02T07:49:58.901Z,100115.53
2023-01-02T07:53:00.424Z,100131.13
2023-01-02T07:56:03.085Z,100130.97
2023-01-02T07:59:05.135Z,100142.69
2023-01-02T08:02:06.777Z,100128.63
2023-01-02T08:05:08.486Z,100134.88
2023-01-02T08:08:09.996Z,100134.03
2023-01-02T08:11:20.381Z,100146.59
2023-01-02T08:14:23.732Z,100153.06
2023-01-02T08:17:25.429Z,100150.34
2023-01-02T08:20:27.341Z,100149.47
2023-01-02T08:23:29.034Z,100158.63
2023-01-02T08:26:30.522Z,100142.50
2023-01-02T08:29:32.528Z,100143.38
2023-01-02T08:32:38.112Z,100153.22
2023-01-02T08:35:39.642Z,100148.97
2023-01-02T08:38:41.225Z,100139.97
2023-01-02T08:41:42.769Z,100148.97
2023-01-02T08:44:44.600Z,100157.28
2023-01-02T08:47:46.137Z,100167.28
2023-01-02T08:50:47.696Z,100145.56
2023-01-02T08:53:49.176Z,100165.41
2023-01-02T08:56:50.702Z,100163.75
2023-01-02T08:59:52.474Z,100167.28
2023-01-02T09:02:54.086Z,100171.03
2023-01-02T09:05:55.599Z,100186.31
2023-01-02T09:08:59.172Z,100166.28
2023-01-02T09:12:00.792Z,100174.59
2023-01-02T09:15:03.366Z,100184.63
2023-01-02T09:18:04.881Z,100173.75
2023-01-02T09:21:06.847Z,100179.19
2023-01-02T09:24:09.466Z,100189.00
2023-01-02T09:27:11.464Z,100187.31
2023-01-02T09:30:13.236Z,100213.66
2023-01-02T09:33:14.752Z,100236.34
2023-01-02T09:36:19.052Z,100214.47
2023-01-02T09:39:20.568Z,100201.91
2023-01-02T09:42:22.259Z,100207.34
2023-01-02T09:45:23.990Z,100208.22
2023-01-02T09:48:31.894Z,100219.72
2023-01-02T09:51:34.744Z,100215.31
2023-01-02T09:54:36.252Z,100208.22
2023-01-02T09:57:47.509Z,100208.88
2023-01-02T10:00:50.494Z,100228.91
2023-01-02T10:04:13.573Z,100227.88
2023-01-02T10:07:36.539Z,100235.19
2023-01-02T10:10:46.052Z,100241.44
2023-01-02T10:17:22.987Z,100254.19
2023-01-02T10:20:37.886Z,100249.59
2023-01-02T10:23:47.595Z,100243.31
2023-01-02T10:26:53.420Z,100255.03
2023-01-02T10:30:03.977Z,100263.16
2023-01-02T10:33:13.092Z,100267.75
2023-01-02T10:36:24.866Z,100266.91
2023-01-02T10:39:31.502Z,100269.78
2023-01-02T10:42:33.883Z,100280.66
2023-01-02T10:45:35.389Z,100270.66
2023-01-02T10:48:37.866Z,100279.66
2023-01-02T10:51:45.600Z,100282.19
2023-01-02T10:55:06.705Z,100267.75
2023-01-02T10:58:29.512Z,100273.03
2023-01-02T11:01:50.609Z,100279.47
2023-01-02T11:04:52.164Z,100282.38
2023-01-02T11:07:54.300Z,100285.09
2023-01-02T11:10:55.783Z,100288.63
2023-01-02T11:14:07.809Z,100290.31
2023-01-02T11:17:22.642Z,100289.31
2023-01-02T11:20:30.632Z,100309.19
2023-01-02T11:23:42.437Z,100327.34
2023-01-02T11:26:44.996Z,100326.66
2023-01-02T11:29:49.601Z,100330.06
2023-01-02T11:33:03.207Z,100320.88
2023-01-02T11:36:05.529Z,100340.06
2023-01-02T11:39:23.743Z,100344.31
2023-01-02T11:42:51.971Z,100343.44
2023-01-02T11:45:54.416Z,100330.91
2023-01-02T11:49:01.731Z,100338.91
2023-01-02T11:52:05.409Z,100343.44
2023-01-02T11:55:18.800Z,100355.19
2023-01-02T11:58:31.827Z,100367.88
2023-01-02T12:01:55.299Z,100373.50
2023-01-02T12:04:56.870Z,100378.94
2023-01-02T12:08:10.727Z,100381.81
2023-01-02T12:11:24.414Z,100373.66
2023-01-02T12:14:54.210Z,100379.09
2023-01-02T12:18:13.487Z,100390.13
2023-01-02T12:21:25.204Z,100401.00
2023-01-02T12:24:42.694Z,100399.13
2023-01-02T12:27:58.335Z,100410.97
2023-01-02T12:31:02.340Z,100419.31
2023-01-02T12:34:25.649Z,100428.16
2023-01-02T12:37:52.622Z,100430.88
2023-01-02T12:41:24.710Z,100442.56
2023-01-02T12:44:31.448Z,100444.59
2023-01-02T12:47:46.957Z,100428.81
2023-01-02T12:51:11.316Z,100440.56
2023-01-02T12:54:47.625Z,100455.81
2023-01-02T12:58:03.611Z,100461.09
2023-01-02T13:01:42.230Z,100464.66
2023-01-02T13:04:51.513Z,100479.94
2023-01-02T13:07:58.069Z,100466.34
2023-01-02T13:11:04.828Z,100463.63
2023-01-02T13:14:07.322Z,100471.78
2023-01-02T13:17:45.054Z,100490.31
2023-01-02T13:21:01.147Z,100496.91
2023-01-02T13:24:03.593Z,100496.06
2023-01-02T13:27:05.569Z,100501.50
2023-01-02T13:30:07.587Z,100502.34
2023-01-02T13:33:33.512Z,100514.75
2023-01-02T13:36:40.602Z,100507.44
2023-01-02T13:39:42.145Z,100497.75
2023-01-02T13:42:59.489Z,100501.03
2023-01-02T13:46:01.698Z,100521.88
2023-01-02T13:49:06.600Z,100515.44
2023-01-02T13:52:16.090Z,100517.13
2023-01-02T13:55:28.444Z,100510.00
2023-01-02T13:58:43.178Z,100522.41
2023-01-02T14:02:00.012Z,100537.69
2023-01-02T14:05:21.401Z,100530.56
2023-01-02T14:08:25.334Z,100543.28
2023-01-02T14:11:56.388Z,100551.59
2023-01-02T14:14:54.299Z,100558.06
2023-01-02T14:18:04.932Z,100574.34
2023-01-02T14:21:06.964Z,100571.78
2023-01-02T14:24:17.093Z,100579.78
2023-01-02T14:27:22.388Z,100591.81
2023-01-02T14:30:36.469Z,100587.22
2023-01-02T14:33:38.069Z,100592.81
2023-01-02T14:36:49.052Z,100578.06
2023-01-02T14:39:50.613Z,100581.94
2023-01-02T14:43:26.341Z,100588.09
2023-01-02T14:46:30.954Z,100598.25
2023-01-02T14:49:33.865Z,100608.13
2023-01-02T14:52:39.348Z,100611.69
2023-01-02T14:55:42.537Z,100613.69
2023-01-02T14:58:46.891Z,100641.56
2023-01-02T15:01:52.445Z,100627.13
2023-01-02T15:05:08.240Z,100627.97
2023-01-02T15:08:13.532Z,100629.84
2023-01-02T15:11:44.632Z,100633.41
2023-01-02T15:14:46.616Z,100635.41
2023-01-02T15:17:49.270Z,100636.28
2023-01-02T15:20:53.663Z,100646.97
2023-01-02T15:23:57.823Z,100640.72
2023-01-02T15:27:21.897Z,100635.09
2023-01-02T15:30:28.326Z,100639.53
2023-01-02T15:33:31.114Z,100631.53
2023-01-02T15:36:37.628Z,100644.09
2023-01-02T15:39:40.253Z,100652.25
2023-01-02T15:43:01.539Z,100663.97
2023-01-02T15:46:03.536Z,100667.53
2023-01-02T15:49:08.271Z,100680.94
2023-01-02T15:52:25.003Z,100682.50
2023-01-02T15:55:30.095Z,100692.19
2023-01-02T15:58:34.470Z,100700.19
2023-01-02T16:01:44.546Z,100705.47
2023-01-02T16:04:46.090Z,100712.88
2023-01-02T16:07:59.188Z,100705.28
2023-01-02T16:11:01.215Z,100717.47
2023-01-02T16:14:19.963Z,100720.50
2023-01-02T16:17:33.664Z,100729.75
2023-01-02T16:20:35.157Z,100733.66
2023-01-02T16:23:39.638Z,100743.06
2023-01-02T16:26:42.119Z,100752.31
2023-01-02T16:29:44.281Z,100746.28
2023-01-02T16:32:49.040Z,100747.22
2023-01-02T16:35:59.918Z,100752.91
2023-01-02T16:39:02.478Z,100751.28
2023-01-02T16:42:22.635Z,100754.41
2023-01-02T16:45:24.135Z,100754.78
2023-01-02T16:48:28.393Z,100752.47
2023-01-02T16:51:30.237Z,100746.72
2023-01-02T16:54:31.790Z,100740.97
2023-01-02T16:57:33.283Z,100764.25
2023-01-02T17:00:41.351Z,100750.34
2023-01-02T17:03:45.491Z,100746.66
2023-01-02T17:06:47.067Z,100769.03
2023-01-02T17:09:48.548Z,100778.75
2023-01-02T17:12:50.147Z,100776.03
2023-01-02T17:15:51.632Z,100786.75
2023-01-02T17:18:53.091Z,100796.59
2023-01-02T17:21:54.565Z,100804.72
2023-01-02T17:24:56.022Z,100810.03
2023-01-02T17:27:57.847Z,100824.63
2023-01-02T17:30:59.395Z,100816.28
2023-01-02T17:34:03.047Z,100824.44
2023-01-02T17:37:04.591Z,100822.75
2023-01-02T17:40:10.079Z,100828.00
2023-01-02T17:43:11.608Z,100827.16
2023-01-02T17:46:48.749Z,100823.59
2023-01-02T17:49:34.559Z,100834.59
2023-01-02T17:52:36.149Z,100834.59
2023-01-02T17:55:37.675Z,100840.91
2023-01-02T17:58:39.611Z,100847.19
2023-01-02T18:01:41.158Z,100846.34
2023-01-02T18:04:47.033Z,100841.75
2023-01-02T18:07:54.181Z,100836.34
2023-01-02T18:10:55.743Z,100827.16
2023-01-02T18:13:57.833Z,100844.47
2023-01-02T18:17:09.498Z,100845.19
2023-01-02T18:20:17.452Z,100847.03
2023-01-02T18:23:18.912Z,100850.75
2023-01-02T18:26:22.445Z,100841.75
2023-01-02T18:29:24.642Z,100843.31
2023-01-02T18:32:38.315Z,100844.16
2023-01-02T18:35:57.442Z,100853.16
2023-01-02T18:39:26.990Z,100865.56
2023-01-02T18:42:33.457Z,100876.31
2023-01-02T18:45:35.179Z,100890.88
2023-01-02T18:48:36.660Z,100894.47
2023-01-02T18:51:38.156Z,100893.44
2023-01-02T18:54:43.188Z,100892.28
2023-01-02T18:57:50.478Z,100898.56
2023-01-02T19:00:53.551Z,100900.44
2023-01-02T19:04:17.815Z,100900.97
2023-01-02T19:07:34.656Z,100889.09
2023-01-02T19:10:41.501Z,100910.84
2023-01-02T19:13:42.978Z,100909.81
2023-01-02T19:16:45.077Z,100926.81
2023-01-02T19:19:47.165Z,100930.41
2023-01-02T19:22:48.619Z,100935.69
2023-01-02T19:25:51.874Z,100939.97
2023-01-02T19:28:55.879Z,100950.66
2023-01-02T19:32:02.419Z,100955.94
2023-01-02T19:35:25.941Z,100959.38
2023-01-02T19:38:29.636Z,100959.19
2023-01-02T19:41:51.359Z,100958.34
2023-01-02T19:45:26.793Z,100965.34
2023-01-02T19:48:28.311Z,100969.09
2023-01-02T19:51:32.053Z,100974.34
2023-01-02T19:54:34.090Z,100975.94
2023-01-02T19:57:35.730Z,100978.50
2023-01-02T20:00:37.178Z,100990.09
2023-01-02T20:03:38.871Z,100993.50
2023-01-02T20:06:40.457Z,100995.22
2023-01-02T20:09:42.468Z,101002.19
2023-01-02T20:12:44.708Z,101009.19
2023-01-02T20:15:46.343Z,101011.78
2023-01-02T20:18:47.866Z,101018.91
2023-01-02T20:21:49.367Z,101031.66
2023-01-02T20:24:50.954Z,101028.06
2023-01-02T20:27:56.297Z,101026.03
2023-01-02T20:30:58.784Z,101032.50
2023-01-02T20:34:00.350Z,101039.78
2023-01-02T20:37:02.307Z,101034.38
2023-01-02T20:40:04.113Z,101031.66
2023-01-02T20:43:05.657Z,101036.22
2023-01-02T20:46:07.271Z,101048.66
2023-01-02T20:49:09.575Z,101050.34
2023-01-02T20:52:11.057Z,101051.22
2023-01-02T20:55:12.675Z,101060.22
2023-01-02T20:58:14.279Z,101061.94
2023-01-02T21:01:15.927Z,101069.91
2023-01-02T21:04:22.704Z,101087.97
2023-01-02T21:07:30.631Z,101092.56
2023-01-02T21:10:32.441Z,101096.97
2023-01-02T21:13:34.804Z,101101.56
2023-01-02T21:16:36.371Z,101104.09
2023-01-02T21:19:38.010Z,101106.69
2023-01-02T21:22:39.510Z,101114.69
2023-01-02T21:25:41.382Z,101122.84
2023-01-02T21:28:44.063Z,101124.56
2023-01-02T21:31:45.623Z,101125.41
2023-01-02T21:34:47.211Z,101130.84
2023-01-02T21:37:48.768Z,101138.00
2023-01-02T21:40:51.799Z,101147.88
2023-01-02T21:43:53.306Z,101142.56
2023-01-02T21:46:54.806Z,101147.88
2023-01-02T21:49:56.363Z,101152.28
2023-01-02T21:52:57.914Z,101160.44
2023-01-02T21:55:59.516Z,101163.00
2023-01-02T21:59:00.978Z,101175.91
2023-01-02T22:02:04.588Z,101171.31
2023-01-02T22:05:06.799Z,101173.34
2023-01-02T22:08:08.698Z,101177.06
2023-01-02T22:11:28.473Z,101187.22
2023-01-02T22:14:37.019Z,101200.66
2023-01-02T22:17:38.619Z,101208.13
2023-01-02T22:20:40.105Z,101204.53
2023-01-02T22:23:41.909Z,101211.00
2023-01-02T22:26:45.697Z,101224.59
2023-01-02T22:33:12.188Z,101226.72
2023-01-02T22:36:13.666Z,101230.47
2023-01-02T22:39:27.984Z,101241.34
2023-01-02T22:43:01.442Z,101256.81
2023-01-02T22:46:07.734Z,101254.22
2023-01-02T22:49:19.490Z,101263.22
2023-01-02T22:52:22.271Z,101267.94
2023-01-02T22:55:24.182Z,101271.69
2023-01-02T22:58:25.997Z,101277.97
2023-01-02T23:01:32.344Z,101286.13
2023-01-02T23:04:33.861Z,101285.41
2023-01-02T23:07:35.413Z,101282.00
2023-01-02T23:10:37.963Z,101288.28
2023-01-02T23:13:39.910Z,101288.28
2023-01-02T23:17:00.290Z,101294.72
2023-01-02T23:20:01.842Z,101292.16
2023-01-02T23:23:03.360Z,101280.44
2023-01-02T23:26:06.372Z,101280.44
2023-01-02T23:29:08.862Z,101286.00
2023-01-02T23:32:10.841Z,101288.00
2023-01-02T23:35:12.427Z,101299.72
2023-01-02T23:38:13.926Z,101305.16
2023-01-02T23:41:15.485Z,101306.16
2023-01-02T23:44:18.170Z,101313.31
2023-01-02T23:47:19.733Z,101318.91
2023-01-02T23:50:21.213Z,101331.66
2023-01-02T23:53:22.743Z,101334.50
2023-01-02T23:56:31.584Z,101340.66
2023-01-02T23:59:33.084Z,101329.19
